createdAt,value
2022-11-27T00:01:39.094Z,88.06
2022-11-27T00:04:10.820Z,88.08
2022-11-27T00:06:42.996Z,88.09
2022-11-27T00:09:17.033Z,88.12
2022-11-27T00:11:47.463Z,88.19
2022-11-27T00:14:18.185Z,87.23
2022-11-27T00:16:48.514Z,88.09
2022-11-27T00:19:19.010Z,88.10
2022-11-27T00:21:49.206Z,87.88
2022-11-27T00:24:18.987Z,87.12
2022-11-27T00:26:51.000Z,88.11
2022-11-27T00:29:21.490Z,88.07
2022-11-27T00:31:51.054Z,87.53
2022-11-27T00:34:21.242Z,88.13
2022-11-27T00:36:51.321Z,88.10
2022-11-27T00:39:22.589Z,88.22
2022-11-27T00:41:52.830Z,88.22
2022-11-27T00:44:23.216Z,88.16
2022-11-27T00:46:53.686Z,88.23
2022-11-27T00:49:24.017Z,88.37
2022-11-27T00:51:54.218Z,88.63
2022-11-27T00:54:23.973Z,87.77
2022-11-27T00:56:56.349Z,89.15
2022-11-27T00:59:26.931Z,89.35
2022-11-27T01:01:57.466Z,89.55
2022-11-27T01:04:27.834Z,89.79
2022-11-27T01:06:58.066Z,89.72
2022-11-27T01:09:28.335Z,89.87
2022-11-27T01:11:58.151Z,89.01
2022-11-27T01:14:28.235Z,89.68
2022-11-27T01:16:57.968Z,88.98
2022-11-27T01:19:28.222Z,89.91
2022-11-27T01:21:58.885Z,89.83
2022-11-27T01:24:29.078Z,89.78
2022-11-27T01:26:59.140Z,89.84
2022-11-27T01:29:29.461Z,90.24
2022-11-27T01:31:59.772Z,90.00
2022-11-27T01:34:30.157Z,90.03
2022-11-27T01:37:00.444Z,89.91
2022-11-27T01:39:30.591Z,89.86
2022-11-27T01:42:00.452Z,88.96
2022-11-27T01:44:30.275Z,90.10
2022-11-27T01:47:12.501Z,89.49
2022-11-27T01:49:52.020Z,90.39
2022-11-27T01:52:33.466Z,90.39
2022-11-27T01:55:09.571Z,90.33
2022-11-27T01:57:49.023Z,90.19
2022-11-27T02:00:20.302Z,90.08
2022-11-27T02:02:50.970Z,90.07
2022-11-27T02:05:26.014Z,90.15
2022-11-27T02:07:58.852Z,90.21
2022-11-27T02:11:02.806Z,89.99
2022-11-27T02:13:40.499Z,90.20
2022-11-27T02:16:33.407Z,90.08
2022-11-27T02:19:24.309Z,90.24
2022-11-27T02:22:02.072Z,90.38
2022-11-27T02:24:51.302Z,90.23
2022-11-27T02:27:39.729Z,90.05
2022-11-27T02:30:10.505Z,90.26
2022-11-27T02:33:03.481Z,90.35
2022-11-27T02:35:43.315Z,90.65
2022-11-27T02:38:39.435Z,90.69
2022-11-27T02:41:26.140Z,90.69
2022-11-27T02:43:57.396Z,90.51
2022-11-27T02:46:30.262Z,90.48
2022-11-27T02:49:06.293Z,90.38
2022-11-27T02:51:44.045Z,90.60
2022-11-27T02:54:19.107Z,90.76
2022-11-27T02:56:52.205Z,90.98
2022-11-27T02:59:24.831Z,91.09
2022-11-27T03:02:00.240Z,91.36
2022-11-27T03:04:39.807Z,91.28
2022-11-27T03:07:17.230Z,91.15
2022-11-27T03:09:50.994Z,91.14
2022-11-27T03:12:21.636Z,91.39
2022-11-27T03:14:51.890Z,91.48
2022-11-27T03:17:40.215Z,91.41
2022-11-27T03:20:39.674Z,91.07
2022-11-27T03:23:09.920Z,91.53
2022-11-27T03:25:39.684Z,91.02
2022-11-27T03:28:12.421Z,91.70
2022-11-27T03:30:43.365Z,91.48
2022-11-27T03:33:13.916Z,91.45
2022-11-27T03:35:44.109Z,91.49
2022-11-27T03:38:13.929Z,90.70
2022-11-27T03:41:03.197Z,91.43
2022-11-27T03:43:40.160Z,91.40
2022-11-27T03:46:23.869Z,91.40
2022-11-27T03:49:26.288Z,91.19
2022-11-27T03:52:26.918Z,91.24
2022-11-27T03:55:09.931Z,91.70
2022-11-27T03:57:42.985Z,91.73
2022-11-27T04:00:13.976Z,91.71
2022-11-27T04:02:53.107Z,91.83
2022-11-27T04:05:24.064Z,91.52
2022-11-27T04:07:54.356Z,91.58
2022-11-27T04:10:24.811Z,91.64
2022-11-27T04:12:54.967Z,91.72
2022-11-27T04:15:24.669Z,91.04
2022-11-27T04:17:54.623Z,91.84
2022-11-27T04:20:24.969Z,91.82
2022-11-27T04:22:55.181Z,91.77
2022-11-27T04:25:25.107Z,91.21
2022-11-27T04:27:55.291Z,91.79
2022-11-27T04:30:25.735Z,91.78
2022-11-27T04:32:55.950Z,91.80
2022-11-27T04:35:25.735Z,91.22
2022-11-27T04:37:58.325Z,91.80
2022-11-27T04:40:29.204Z,91.67
2022-11-27T04:42:59.502Z,91.53
2022-11-27T04:45:29.866Z,91.67
2022-11-27T04:48:00.147Z,91.79
2022-11-27T04:50:29.859Z,90.85
2022-11-27T04:53:01.151Z,92.06
2022-11-27T04:55:31.467Z,92.13
2022-11-27T04:58:01.577Z,92.28
2022-11-27T05:00:31.910Z,92.44
2022-11-27T05:03:02.250Z,92.61
2022-11-27T05:05:32.363Z,92.56
2022-11-27T05:08:02.610Z,92.42
2022-11-27T05:10:33.007Z,92.32
2022-11-27T05:13:03.203Z,92.50
2022-11-27T05:15:33.079Z,92.01
2022-11-27T05:18:03.227Z,92.48
2022-11-27T05:20:33.449Z,92.64
2022-11-27T05:23:03.154Z,91.80
2022-11-27T05:25:33.229Z,92.70
2022-11-27T05:28:02.975Z,91.83
2022-11-27T05:30:33.676Z,92.89
2022-11-27T05:33:03.949Z,92.96
2022-11-27T05:35:34.192Z,93.12
2022-11-27T05:38:03.849Z,92.54
2022-11-27T05:40:34.178Z,93.17
2022-11-27T05:43:05.183Z,93.11
2022-11-27T05:45:35.579Z,92.99
2022-11-27T05:48:06.033Z,93.06
2022-11-27T05:50:36.311Z,93.21
2022-11-27T05:53:07.850Z,93.14
2022-11-27T05:55:38.056Z,93.25
2022-11-27T05:58:07.792Z,92.68
2022-11-27T06:00:37.778Z,93.28
2022-11-27T06:03:07.815Z,93.26
2022-11-27T06:05:41.841Z,93.25
2022-11-27T06:08:12.190Z,93.38
2022-11-27T06:10:42.991Z,93.17
2022-11-27T06:13:13.299Z,93.23
2022-11-27T06:15:43.234Z,92.45
2022-11-27T06:18:14.315Z,93.45
2022-11-27T06:20:47.842Z,93.31
2022-11-27T06:23:20.538Z,93.44
2022-11-27T06:25:50.694Z,93.42
2022-11-27T06:28:20.655Z,93.59
2022-11-27T06:30:50.455Z,92.58
2022-11-27T06:33:20.695Z,93.48
2022-11-27T06:35:50.848Z,93.43
2022-11-27T06:38:20.875Z,93.35
2022-11-27T06:40:50.586Z,92.95
2022-11-27T06:43:20.451Z,93.39
2022-11-27T06:45:57.317Z,93.08
2022-11-27T06:48:27.852Z,93.58
2022-11-27T06:51:02.539Z,93.67
2022-11-27T06:53:34.928Z,93.60
2022-11-27T06:56:10.305Z,93.58
2022-11-27T06:58:40.835Z,93.55
2022-11-27T07:01:14.753Z,93.59
2022-11-27T07:03:45.989Z,93.46
2022-11-27T07:06:20.952Z,93.49
2022-11-27T07:08:51.599Z,93.46
2022-11-27T07:11:24.694Z,93.33
2022-11-27T07:13:57.952Z,93.20
2022-11-27T07:16:29.995Z,93.43
2022-11-27T07:19:04.117Z,93.56
2022-11-27T07:21:34.728Z,93.70
2022-11-27T07:24:05.268Z,93.83
2022-11-27T07:26:35.602Z,93.93
2022-11-27T07:29:05.879Z,93.98
2022-11-27T07:31:36.194Z,93.91
2022-11-27T07:34:10.377Z,93.90
2022-11-27T07:36:44.494Z,93.99
2022-11-27T07:39:14.932Z,94.01
2022-11-27T07:41:45.194Z,93.79
2022-11-27T07:44:15.600Z,93.71
2022-11-27T07:46:45.806Z,93.64
2022-11-27T07:49:15.809Z,94.08
2022-11-27T07:51:46.091Z,93.69
2022-11-27T07:54:16.293Z,93.71
2022-11-27T07:56:45.980Z,92.84
2022-11-27T07:59:16.159Z,93.61
2022-11-27T08:01:46.138Z,92.84
2022-11-27T08:04:16.320Z,93.83
2022-11-27T08:06:46.670Z,93.97
2022-11-27T08:09:16.448Z,93.22
2022-11-27T08:11:46.412Z,93.91
2022-11-27T08:14:17.497Z,93.48
2022-11-27T08:16:47.848Z,93.97
2022-11-27T08:19:18.172Z,93.93
2022-11-27T08:21:48.185Z,93.80
2022-11-27T08:24:18.358Z,94.28
2022-11-27T08:26:48.089Z,93.60
2022-11-27T08:29:18.323Z,94.35
2022-11-27T08:31:48.932Z,94.21
2022-11-27T08:34:19.297Z,94.16
2022-11-27T08:36:49.626Z,94.10
2022-11-27T08:39:19.919Z,94.27
2022-11-27T08:41:50.244Z,94.33
2022-11-27T08:44:20.350Z,94.23
2022-11-27T08:46:50.205Z,93.49
2022-11-27T08:49:20.619Z,93.92
2022-11-27T08:51:50.842Z,93.68
2022-11-27T08:54:20.543Z,92.72
2022-11-27T08:56:50.589Z,93.30
2022-11-27T08:59:21.028Z,93.32
2022-11-27T09:01:51.315Z,93.23
2022-11-27T09:04:21.656Z,93.02
2022-11-27T09:06:56.814Z,92.94
2022-11-27T09:09:29.000Z,92.67
2022-11-27T09:11:59.309Z,92.61
2022-11-27T09:14:29.569Z,92.38
2022-11-27T09:16:59.530Z,91.74
2022-11-27T09:19:29.517Z,92.01
2022-11-27T09:22:00.866Z,91.60
2022-11-27T09:24:32.070Z,91.52
2022-11-27T09:27:02.392Z,91.30
2022-11-27T09:29:32.805Z,91.00
2022-11-27T09:32:03.275Z,90.81
2022-11-27T09:34:37.737Z,90.58
2022-11-27T09:37:08.375Z,90.35
2022-11-27T09:39:38.903Z,90.15
2022-11-27T09:42:14.134Z,89.96
2022-11-27T09:44:55.589Z,89.68
2022-11-27T09:47:42.618Z,89.31
2022-11-27T09:50:19.799Z,89.09
2022-11-27T09:53:01.667Z,88.56
2022-11-27T09:55:38.630Z,88.29
2022-11-27T09:58:24.297Z,88.05
2022-11-27T10:00:54.564Z,87.75
2022-11-27T10:03:29.387Z,87.40
2022-11-27T10:06:24.562Z,87.12
2022-11-27T10:09:15.974Z,86.40
2022-11-27T10:12:04.304Z,86.63
2022-11-27T10:14:46.665Z,86.38
2022-11-27T10:17:21.826Z,86.07
2022-11-27T10:20:02.533Z,85.64
2022-11-27T10:22:35.556Z,85.38
2022-11-27T10:25:30.337Z,85.34
2022-11-27T10:28:12.719Z,84.61
2022-11-27T10:31:06.546Z,84.57
2022-11-27T10:33:53.831Z,84.18
2022-11-27T10:36:38.312Z,84.32
2022-11-27T10:39:33.617Z,83.44
2022-11-27T10:42:34.656Z,83.11
2022-11-27T10:45:08.196Z,82.34
2022-11-27T10:47:41.956Z,82.52
2022-11-27T10:50:16.358Z,81.84
2022-11-27T10:52:57.161Z,81.59
2022-11-27T10:56:05.536Z,81.99
2022-11-27T10:58:54.031Z,82.02
2022-11-27T11:01:26.460Z,79.79
2022-11-27T11:04:35.884Z,80.54
2022-11-27T11:07:01.174Z,80.18
2022-11-27T11:09:37.561Z,80.25
2022-11-27T11:12:10.829Z,79.83
2022-11-27T11:14:41.208Z,79.55
2022-11-27T11:17:19.070Z,79.60
2022-11-27T11:19:49.438Z,78.30
2022-11-27T11:22:20.252Z,78.59
2022-11-27T11:24:53.493Z,78.23
2022-11-27T11:27:28.601Z,78.31
2022-11-27T11:30:07.863Z,76.93
2022-11-27T11:32:40.896Z,76.58
2022-11-27T11:35:35.975Z,75.49
2022-11-27T11:38:17.220Z,75.90
2022-11-27T11:41:04.833Z,76.25
2022-11-27T11:43:37.877Z,73.66
2022-11-27T11:46:21.255Z,73.17
2022-11-27T11:49:09.601Z,74.11
2022-11-27T11:52:00.491Z,73.00
2022-11-27T11:54:51.189Z,73.40
2022-11-27T11:58:11.444Z,73.88
2022-11-27T12:01:25.450Z,73.73
2022-11-27T12:04:04.149Z,71.75
2022-11-27T12:07:12.398Z,71.90
2022-11-27T12:10:10.211Z,71.09
2022-11-27T12:12:58.820Z,70.64
2022-11-27T12:15:46.758Z,68.94
2022-11-27T12:18:46.025Z,68.86
2022-11-27T12:21:19.572Z,69.21
2022-11-27T12:24:15.330Z,70.30
2022-11-27T12:27:19.275Z,69.00
2022-11-27T12:30:07.529Z,70.59
2022-11-27T12:32:40.638Z,67.70
2022-11-27T12:35:19.920Z,68.27
2022-11-27T12:38:18.713Z,68.82
2022-11-27T12:40:48.898Z,66.62
2022-11-27T12:43:30.842Z,67.94
2022-11-27T12:46:12.109Z,66.67
2022-11-27T12:49:06.242Z,68.12
2022-11-27T12:51:43.706Z,67.63
2022-11-27T12:54:21.992Z,66.94
2022-11-27T12:57:00.274Z,66.40
2022-11-27T13:00:06.352Z,66.31
2022-11-27T13:03:28.462Z,66.89
2022-11-27T13:06:12.713Z,67.19
2022-11-27T13:09:29.009Z,65.34
2022-11-27T13:11:59.788Z,65.44
2022-11-27T13:14:31.046Z,63.82
2022-11-27T13:17:06.653Z,65.40
2022-11-27T13:19:51.589Z,66.74
2022-11-27T13:22:30.708Z,64.46
2022-11-27T13:25:03.921Z,65.97
2022-11-27T13:27:37.892Z,66.99
2022-11-27T13:30:11.137Z,66.00
2022-11-27T13:32:51.281Z,64.44
2022-11-27T13:35:32.520Z,65.24
2022-11-27T13:38:24.932Z,65.83
2022-11-27T13:41:00.740Z,64.40
2022-11-27T13:43:38.361Z,65.57
2022-11-27T13:46:26.297Z,66.20
2022-11-27T13:49:06.686Z,65.42
2022-11-27T13:51:40.198Z,65.25
2022-11-27T13:54:23.400Z,66.52
2022-11-27T13:56:57.924Z,66.39
2022-11-27T13:59:28.292Z,66.63
2022-11-27T14:02:04.429Z,65.28
2022-11-27T14:04:34.948Z,64.38
2022-11-27T14:07:08.413Z,64.97
2022-11-27T14:09:51.173Z,64.61
2022-11-27T14:12:32.086Z,64.49
2022-11-27T14:15:24.735Z,64.35
2022-11-27T14:18:06.387Z,63.49
2022-11-27T14:20:39.532Z,63.64
2022-11-27T14:23:13.144Z,63.73
2022-11-27T14:25:43.969Z,64.21
2022-11-27T14:28:28.416Z,64.49
2022-11-27T14:31:01.040Z,64.67
2022-11-27T14:33:59.590Z,65.28
2022-11-27T14:36:33.037Z,65.49
2022-11-27T14:39:04.648Z,64.84
2022-11-27T14:41:34.993Z,62.57
2022-11-27T14:44:08.368Z,64.65
2022-11-27T14:46:39.499Z,65.56
2022-11-27T14:49:22.717Z,63.76
2022-11-27T14:51:53.338Z,63.80
2022-11-27T14:54:37.216Z,65.96
2022-11-27T14:57:09.056Z,64.96
2022-11-27T14:59:41.365Z,63.32
2022-11-27T15:02:14.591Z,62.31
2022-11-27T15:04:47.068Z,61.45
2022-11-27T15:07:24.739Z,61.40
2022-11-27T15:09:57.537Z,61.91
2022-11-27T15:12:46.190Z,63.16
2022-11-27T15:15:30.795Z,63.06
2022-11-27T15:18:06.406Z,62.26
2022-11-27T15:20:36.644Z,63.66
2022-11-27T15:23:16.545Z,63.76
2022-11-27T15:25:50.465Z,64.73
2022-11-27T15:28:36.271Z,65.22
2022-11-27T15:31:24.695Z,63.69
2022-11-27T15:33:58.953Z,64.28
2022-11-27T15:36:36.864Z,64.10
2022-11-27T15:39:53.308Z,64.14
2022-11-27T15:42:24.036Z,64.91
2022-11-27T15:44:57.324Z,66.33
2022-11-27T15:47:45.779Z,67.44
2022-11-27T15:50:18.819Z,68.01
2022-11-27T15:52:49.665Z,67.76
2022-11-27T15:55:20.379Z,67.25
2022-11-27T15:57:50.909Z,66.76
2022-11-27T16:00:23.340Z,67.15
2022-11-27T16:02:54.610Z,66.21
2022-11-27T16:05:25.045Z,64.98
2022-11-27T16:07:55.693Z,66.23
2022-11-27T16:10:26.356Z,67.39
2022-11-27T16:12:59.038Z,65.91
2022-11-27T16:15:48.704Z,66.95
2022-11-27T16:18:19.812Z,67.70
2022-11-27T16:20:50.163Z,64.90
2022-11-27T16:23:20.478Z,67.21
2022-11-27T16:25:50.836Z,65.88
2022-11-27T16:28:21.173Z,63.92
2022-11-27T16:30:55.362Z,64.62
2022-11-27T16:33:33.240Z,65.22
2022-11-27T16:36:13.669Z,65.49
2022-11-27T16:38:44.848Z,65.86
2022-11-27T16:41:18.047Z,68.06
2022-11-27T16:43:52.398Z,67.01
2022-11-27T16:46:29.903Z,65.08
2022-11-27T16:49:02.667Z,64.77
2022-11-27T16:51:34.786Z,64.61
2022-11-27T16:54:07.328Z,63.83
2022-11-27T16:56:39.948Z,64.81
2022-11-27T16:59:12.111Z,64.93
2022-11-27T17:01:44.413Z,64.49
2022-11-27T17:04:21.424Z,64.22
2022-11-27T17:06:52.445Z,65.64
2022-11-27T17:09:25.922Z,63.61
2022-11-27T17:11:57.078Z,64.53
2022-11-27T17:14:29.312Z,64.02
2022-11-27T17:17:00.223Z,64.22
2022-11-27T17:19:33.006Z,63.88
2022-11-27T17:22:03.976Z,64.12
2022-11-27T17:24:37.209Z,64.42
2022-11-27T17:27:11.324Z,66.34
2022-11-27T17:29:43.033Z,65.64
2022-11-27T17:32:15.174Z,66.07
2022-11-27T17:34:46.801Z,65.55
2022-11-27T17:37:19.082Z,66.00
2022-11-27T17:39:49.616Z,65.29
2022-11-27T17:42:22.903Z,64.87
2022-11-27T17:44:53.730Z,65.89
2022-11-27T17:47:24.035Z,65.43
2022-11-27T17:49:54.346Z,63.63
2022-11-27T17:52:24.806Z,64.00
2022-11-27T17:54:55.290Z,64.50
2022-11-27T17:57:26.460Z,64.56
2022-11-27T17:59:56.685Z,64.86
2022-11-27T18:02:27.623Z,64.77
2022-11-27T18:04:58.166Z,64.95
2022-11-27T18:07:29.713Z,64.71
2022-11-27T18:10:00.685Z,63.90
2022-11-27T18:12:31.033Z,64.27
2022-11-27T18:15:01.721Z,64.45
2022-11-27T18:17:32.090Z,64.24
2022-11-27T18:20:02.364Z,63.93
2022-11-27T18:22:32.577Z,64.44
2022-11-27T18:25:02.919Z,64.49
2022-11-27T18:27:34.094Z,64.65
2022-11-27T18:30:05.874Z,64.93
2022-11-27T18:32:38.347Z,65.27
2022-11-27T18:35:08.960Z,65.36
2022-11-27T18:37:39.831Z,66.22
2022-11-27T18:40:10.918Z,66.23
2022-11-27T18:42:41.246Z,66.07
2022-11-27T18:45:31.219Z,66.88
2022-11-27T18:48:02.078Z,66.47
2022-11-27T18:50:32.464Z,66.08
2022-11-27T18:53:04.504Z,66.42
2022-11-27T18:55:37.124Z,66.59
2022-11-27T18:58:07.812Z,66.69
2022-11-27T19:00:38.283Z,66.10
2022-11-27T19:03:08.635Z,66.85
2022-11-27T19:05:38.925Z,66.87
2022-11-27T19:08:10.301Z,66.53
2022-11-27T19:10:40.945Z,66.40
2022-11-27T19:13:11.331Z,66.88
2022-11-27T19:15:42.614Z,66.85
2022-11-27T19:18:13.124Z,66.96
2022-11-27T19:20:43.554Z,67.06
2022-11-27T19:23:13.748Z,67.72
2022-11-27T19:25:44.771Z,67.48
2022-11-27T19:28:15.217Z,66.80
2022-11-27T19:30:46.203Z,67.12
2022-11-27T19:33:16.949Z,67.82
2022-11-27T19:35:47.364Z,67.76
2022-11-27T19:38:18.102Z,67.34
2022-11-27T19:40:49.715Z,68.03
2022-11-27T19:43:20.445Z,67.92
2022-11-27T19:45:50.980Z,68.34
2022-11-27T19:48:23.564Z,67.78
2022-11-27T19:50:54.162Z,68.43
2022-11-27T19:53:25.226Z,68.38
2022-11-27T19:55:56.899Z,68.97
2022-11-27T19:58:27.793Z,69.21
2022-11-27T20:01:07.926Z,69.01
2022-11-27T20:03:38.947Z,69.36
2022-11-27T20:06:15.419Z,69.18
2022-11-27T20:08:47.211Z,69.47
2022-11-27T20:11:20.899Z,70.54
2022-11-27T20:13:51.860Z,70.13
2022-11-27T20:16:23.403Z,70.42
2022-11-27T20:18:53.850Z,70.47
2022-11-27T20:21:27.375Z,70.89
2022-11-27T20:23:58.199Z,70.39
2022-11-27T20:26:30.353Z,70.58
2022-11-27T20:29:02.497Z,70.55
2022-11-27T20:31:38.691Z,70.91
2022-11-27T20:34:12.236Z,71.39
2022-11-27T20:36:42.530Z,71.10
2022-11-27T20:39:17.709Z,71.84
2022-11-27T20:41:52.622Z,72.03
2022-11-27T20:44:23.923Z,71.72
2022-11-27T20:46:55.766Z,71.94
2022-11-27T20:49:26.865Z,72.37
2022-11-27T20:52:01.268Z,72.57
2022-11-27T20:54:32.350Z,72.69
2022-11-27T20:57:03.104Z,73.29
2022-11-27T20:59:33.861Z,73.79
2022-11-27T21:02:06.641Z,73.63
2022-11-27T21:04:36.881Z,74.38
2022-11-27T21:07:07.628Z,74.33
2022-11-27T21:09:38.117Z,74.63
2022-11-27T21:12:09.063Z,74.92
2022-11-27T21:14:39.378Z,75.30
2022-11-27T21:17:10.499Z,75.49
2022-11-27T21:19:42.091Z,75.82
2022-11-27T21:22:12.614Z,76.29
2022-11-27T21:24:43.068Z,76.22
2022-11-27T21:27:13.876Z,76.87
2022-11-27T21:29:44.443Z,76.61
2022-11-27T21:32:15.706Z,76.92
2022-11-27T21:34:46.041Z,77.61
2022-11-27T21:37:16.473Z,77.99
2022-11-27T21:39:46.840Z,77.64
2022-11-27T21:42:17.979Z,77.83
2022-11-27T21:44:48.452Z,76.99
2022-11-27T21:47:18.818Z,78.09
2022-11-27T21:49:52.297Z,78.73
2022-11-27T21:52:23.260Z,78.93
2022-11-27T21:54:54.935Z,79.07
2022-11-27T21:57:25.345Z,79.24
2022-11-27T21:59:56.020Z,79.69
2022-11-27T22:02:26.269Z,80.16
2022-11-27T22:04:56.636Z,80.45
2022-11-27T22:07:26.925Z,80.74
2022-11-27T22:09:57.312Z,80.67
2022-11-27T22:12:26.871Z,80.57
2022-11-27T22:14:57.282Z,80.90
2022-11-27T22:17:27.835Z,81.39
2022-11-27T22:19:58.797Z,81.39
2022-11-27T22:22:30.307Z,81.54
2022-11-27T22:25:01.680Z,81.43
2022-11-27T22:27:32.406Z,81.61
2022-11-27T22:30:02.799Z,81.70
2022-11-27T22:32:33.277Z,81.65
2022-11-27T22:35:03.770Z,81.56
2022-11-27T22:37:34.156Z,81.40
2022-11-27T22:40:04.765Z,81.56
2022-11-27T22:42:36.619Z,81.63
2022-11-27T22:45:08.424Z,81.54
2022-11-27T22:47:39.024Z,81.84
2022-11-27T22:50:09.565Z,81.87
2022-11-27T22:52:39.857Z,81.81
2022-11-27T22:55:10.843Z,81.44
2022-11-27T22:57:41.047Z,81.56
2022-11-27T23:00:12.842Z,81.91
2022-11-27T23:02:44.950Z,81.69
2022-11-27T23:05:15.611Z,81.71
2022-11-27T23:07:45.976Z,81.72
2022-11-27T23:10:16.356Z,81.76
2022-11-27T23:12:46.618Z,81.84
2022-11-27T23:15:16.998Z,81.88
2022-11-27T23:17:47.303Z,81.84
2022-11-27T23:20:17.583Z,81.89
2022-11-27T23:22:47.889Z,81.96
2022-11-27T23:25:17.666Z,81.27
2022-11-27T23:27:49.272Z,82.24
2022-11-27T23:30:19.719Z,81.94
2022-11-27T23:32:49.217Z,81.51
2022-11-27T23:35:19.213Z,82.42
2022-11-27T23:37:49.508Z,82.51
2022-11-27T23:40:19.958Z,82.67
2022-11-27T23:42:53.485Z,83.11
2022-11-27T23:45:24.915Z,83.23
2022-11-27T23:47:55.257Z,83.24
2022-11-27T23:50:25.593Z,83.76
2022-11-27T23:52:56.633Z,83.78
2022-11-27T23:55:27.182Z,83.84
2022-11-27T23:57:57.454Z,83.82
